createdAt,value
2022-10-19T00:01:31.526Z,10.98
2022-10-19T00:04:18.047Z,11.08
2022-10-19T00:07:04.282Z,10.98
2022-10-19T00:09:50.831Z,10.91
2022-10-19T00:12:37.692Z,10.97
2022-10-19T00:15:24.404Z,10.95
2022-10-19T00:18:10.689Z,10.63
2022-10-19T00:21:06.569Z,11.15
2022-10-19T00:23:52.722Z,11.07
2022-10-19T00:26:39.127Z,10.92
2022-10-19T00:29:25.318Z,10.92
2022-10-19T00:32:11.487Z,10.91
2022-10-19T00:34:57.607Z,10.79
2022-10-19T00:37:43.990Z,10.88
2022-10-19T00:40:36.503Z,10.71
2022-10-19T00:43:26.614Z,11.03
2022-10-19T00:46:13.810Z,10.73
2022-10-19T00:49:11.026Z,10.57
2022-10-19T00:52:02.983Z,10.83
2022-10-19T00:54:52.512Z,10.65
2022-10-19T00:57:39.760Z,11.02
2022-10-19T01:00:26.327Z,11.06
2022-10-19T01:03:13.187Z,10.95
2022-10-19T01:05:59.863Z,11.32
2022-10-19T01:08:46.298Z,11.56
2022-10-19T01:12:01.221Z,11.70
2022-10-19T01:15:11.453Z,11.73
2022-10-19T01:18:03.693Z,11.63
2022-10-19T01:21:09.476Z,11.63
2022-10-19T01:24:18.006Z,11.65
2022-10-19T01:27:37.173Z,11.60
2022-10-19T01:30:37.193Z,11.69
2022-10-19T01:33:50.175Z,11.66
2022-10-19T01:36:55.022Z,11.78
2022-10-19T01:40:03.930Z,11.55
2022-10-19T01:43:01.043Z,11.66
2022-10-19T01:45:58.230Z,11.70
2022-10-19T01:48:52.550Z,11.74
2022-10-19T01:51:44.912Z,11.57
2022-10-19T01:54:37.060Z,11.41
2022-10-19T01:57:30.254Z,11.82
2022-10-19T02:00:17.493Z,11.83
2022-10-19T02:03:06.320Z,11.76
2022-10-19T02:05:54.765Z,11.65
2022-10-19T02:08:45.906Z,11.93
2022-10-19T02:11:33.166Z,11.79
2022-10-19T02:14:24.224Z,11.95
2022-10-19T02:17:14.621Z,12.08
2022-10-19T02:20:01.571Z,11.89
2022-10-19T02:22:48.386Z,11.84
2022-10-19T02:25:35.937Z,11.96
2022-10-19T02:28:23.053Z,11.90
2022-10-19T02:31:09.411Z,11.78
2022-10-19T02:33:55.958Z,11.89
2022-10-19T02:36:42.398Z,11.83
2022-10-19T02:39:28.829Z,11.95
2022-10-19T02:42:22.457Z,12.06
2022-10-19T02:45:16.005Z,12.02
2022-10-19T02:48:07.420Z,11.92
2022-10-19T02:50:53.683Z,12.21
2022-10-19T02:53:39.763Z,11.98
2022-10-19T02:56:26.373Z,12.08
2022-10-19T02:59:12.603Z,12.00
2022-10-19T03:01:58.833Z,12.30
2022-10-19T03:07:37.409Z,12.10
2022-10-19T03:10:24.210Z,12.35
2022-10-19T03:13:10.589Z,12.20
2022-10-19T03:15:56.807Z,12.35
2022-10-19T03:18:43.296Z,12.28
2022-10-19T03:21:29.705Z,12.36
2022-10-19T03:24:15.926Z,12.11
2022-10-19T03:27:02.125Z,11.99
2022-10-19T03:29:48.296Z,12.26
2022-10-19T03:32:34.521Z,11.96
2022-10-19T03:35:21.046Z,12.16
2022-10-19T03:38:07.216Z,11.79
2022-10-19T03:40:54.497Z,11.86
2022-10-19T03:43:41.221Z,11.91
2022-10-19T03:46:27.705Z,11.90
2022-10-19T03:49:14.301Z,11.84
2022-10-19T03:52:00.414Z,11.91
2022-10-19T03:54:50.438Z,11.92
2022-10-19T03:57:37.648Z,12.02
2022-10-19T04:00:24.176Z,12.01
2022-10-19T04:03:10.385Z,12.11
2022-10-19T04:06:03.165Z,12.30
2022-10-19T04:08:49.983Z,12.19
2022-10-19T04:11:36.419Z,12.12
2022-10-19T04:14:32.373Z,12.24
2022-10-19T04:17:19.842Z,12.23
2022-10-19T04:20:06.710Z,12.13
2022-10-19T04:22:53.447Z,12.13
2022-10-19T04:25:39.671Z,12.15
2022-10-19T04:28:26.043Z,12.30
2022-10-19T04:31:12.786Z,12.44
2022-10-19T04:33:59.494Z,12.47
2022-10-19T04:36:46.200Z,12.43
2022-10-19T04:39:32.408Z,12.50
2022-10-19T04:42:18.556Z,12.59
2022-10-19T04:45:05.395Z,12.60
2022-10-19T04:47:54.147Z,12.72
2022-10-19T04:50:40.793Z,12.74
2022-10-19T04:53:27.226Z,12.87
2022-10-19T04:56:16.613Z,12.89
2022-10-19T04:59:03.235Z,12.65
2022-10-19T05:01:49.398Z,12.81
2022-10-19T05:04:35.568Z,12.84
2022-10-19T05:07:22.089Z,12.74
2022-10-19T05:10:12.582Z,12.72
2022-10-19T05:13:02.335Z,12.90
2022-10-19T05:15:56.588Z,12.66
2022-10-19T05:18:43.138Z,12.69
2022-10-19T05:21:29.618Z,12.83
2022-10-19T05:24:16.046Z,12.73
2022-10-19T05:27:02.084Z,12.84
2022-10-19T05:29:48.592Z,12.90
2022-10-19T05:32:35.462Z,13.03
2022-10-19T05:35:22.869Z,13.09
2022-10-19T05:38:09.316Z,12.96
2022-10-19T05:40:55.826Z,12.96
2022-10-19T05:43:43.682Z,12.87
2022-10-19T05:46:31.913Z,12.84
2022-10-19T05:49:20.837Z,12.71
2022-10-19T05:52:07.005Z,12.65
2022-10-19T05:54:53.959Z,12.68
2022-10-19T05:57:40.353Z,12.63
2022-10-19T06:00:26.831Z,12.55
2022-10-19T06:03:13.026Z,12.45
2022-10-19T06:06:03.437Z,12.25
2022-10-19T06:08:50.892Z,12.73
2022-10-19T06:11:39.964Z,12.81
2022-10-19T06:14:26.154Z,12.70
2022-10-19T06:17:12.309Z,12.78
2022-10-19T06:19:58.794Z,12.76
2022-10-19T06:22:44.876Z,12.76
2022-10-19T06:25:32.093Z,12.68
2022-10-19T06:28:18.207Z,12.64
2022-10-19T06:31:07.269Z,12.78
2022-10-19T06:33:56.078Z,12.80
2022-10-19T06:36:42.480Z,12.78
2022-10-19T06:39:28.772Z,12.74
2022-10-19T06:42:15.306Z,12.84
2022-10-19T06:45:01.520Z,12.82
2022-10-19T06:50:35.290Z,13.02
2022-10-19T06:53:21.846Z,13.23
2022-10-19T06:56:08.293Z,13.18
2022-10-19T06:58:55.367Z,13.38
2022-10-19T07:01:41.854Z,13.45
2022-10-19T07:04:28.122Z,13.58
2022-10-19T07:07:14.442Z,13.51
2022-10-19T07:10:01.261Z,13.47
2022-10-19T07:12:47.386Z,13.37
2022-10-19T07:15:33.898Z,13.52
2022-10-19T07:18:20.331Z,13.36
2022-10-19T07:21:12.606Z,13.73
2022-10-19T07:23:58.926Z,13.41
2022-10-19T07:26:45.384Z,13.66
2022-10-19T07:29:31.961Z,13.81
2022-10-19T07:32:18.439Z,13.71
2022-10-19T07:35:05.537Z,13.61
2022-10-19T07:37:51.857Z,13.95
2022-10-19T07:40:38.230Z,14.04
2022-10-19T07:43:24.593Z,14.00
2022-10-19T07:46:13.871Z,14.12
2022-10-19T07:49:01.033Z,14.06
2022-10-19T07:51:47.525Z,14.26
2022-10-19T07:54:34.056Z,14.18
2022-10-19T07:57:22.254Z,13.97
2022-10-19T08:00:09.640Z,13.89
2022-10-19T08:03:19.298Z,13.87
2022-10-19T08:06:08.236Z,13.88
2022-10-19T08:08:55.360Z,13.94
2022-10-19T08:11:41.991Z,13.84
2022-10-19T08:14:28.309Z,13.95
2022-10-19T08:17:17.345Z,13.62
2022-10-19T08:20:05.504Z,13.59
2022-10-19T08:22:56.377Z,13.59
2022-10-19T08:25:45.362Z,13.36
2022-10-19T08:28:31.752Z,13.40
2022-10-19T08:31:21.166Z,13.39
2022-10-19T08:34:08.494Z,13.61
2022-10-19T08:36:54.938Z,13.69
2022-10-19T08:39:41.376Z,13.73
2022-10-19T08:43:03.674Z,14.02
2022-10-19T08:45:59.166Z,13.95
2022-10-19T08:48:46.365Z,13.85
2022-10-19T08:51:37.451Z,13.57
2022-10-19T08:54:30.516Z,13.99
2022-10-19T08:57:32.537Z,14.02
2022-10-19T09:00:54.668Z,13.78
2022-10-19T09:03:55.434Z,13.87
2022-10-19T09:07:08.362Z,14.16
2022-10-19T09:10:12.150Z,14.26
2022-10-19T09:13:10.658Z,14.38
2022-10-19T09:15:57.003Z,14.45
2022-10-19T09:18:44.434Z,14.31
2022-10-19T09:21:47.742Z,14.36
2022-10-19T09:24:43.889Z,14.44
2022-10-19T09:27:45.733Z,14.77
2022-10-19T09:30:37.694Z,14.70
2022-10-19T09:33:32.095Z,15.04
2022-10-19T09:36:22.741Z,15.18
2022-10-19T09:39:14.357Z,15.06
2022-10-19T09:42:23.007Z,15.30
2022-10-19T09:45:31.542Z,15.25
2022-10-19T09:48:33.122Z,15.12
2022-10-19T09:51:21.094Z,15.02
2022-10-19T09:54:23.690Z,15.03
2022-10-19T09:57:21.156Z,14.96
2022-10-19T10:00:16.774Z,15.48
2022-10-19T10:03:05.897Z,15.39
2022-10-19T10:05:53.449Z,15.76
2022-10-19T10:08:57.879Z,15.96
2022-10-19T10:11:47.901Z,15.93
2022-10-19T10:14:36.590Z,15.88
2022-10-19T10:17:30.380Z,16.02
2022-10-19T10:20:26.737Z,15.79
2022-10-19T10:23:24.404Z,15.83
2022-10-19T10:26:19.884Z,15.84
2022-10-19T10:29:23.998Z,15.77
2022-10-19T10:32:20.319Z,15.91
2022-10-19T10:35:16.376Z,16.01
2022-10-19T10:38:25.162Z,16.01
2022-10-19T10:41:17.784Z,15.93
2022-10-19T10:44:08.504Z,16.02
2022-10-19T10:47:03.932Z,15.87
2022-10-19T10:49:58.594Z,16.01
2022-10-19T10:53:06.597Z,16.03
2022-10-19T10:55:56.660Z,15.92
2022-10-19T10:58:54.269Z,15.85
2022-10-19T11:01:45.255Z,16.11
2022-10-19T11:04:38.648Z,16.09
2022-10-19T11:07:27.757Z,16.17
2022-10-19T11:10:26.572Z,16.12
2022-10-19T11:13:18.406Z,16.12
2022-10-19T11:16:17.786Z,16.31
2022-10-19T11:19:35.622Z,16.36
2022-10-19T11:22:39.730Z,16.74
2022-10-19T11:25:42.763Z,16.84
2022-10-19T11:28:37.377Z,16.81
2022-10-19T11:31:32.522Z,16.73
2022-10-19T11:34:42.781Z,16.71
2022-10-19T11:37:45.484Z,17.01
2022-10-19T11:40:54.257Z,17.25
2022-10-19T11:44:25.524Z,17.35
2022-10-19T11:47:42.038Z,17.60
2022-10-19T11:50:58.980Z,17.51
2022-10-19T11:54:15.381Z,17.67
2022-10-19T11:57:24.070Z,17.30
2022-10-19T12:00:37.615Z,17.23
2022-10-19T12:03:57.321Z,17.25
2022-10-19T12:07:05.435Z,17.51
2022-10-19T12:10:00.923Z,17.78
2022-10-19T12:12:55.256Z,18.07
2022-10-19T12:15:48.296Z,18.33
2022-10-19T12:18:41.081Z,18.71
2022-10-19T12:21:40.000Z,19.04
2022-10-19T12:24:28.636Z,19.10
2022-10-19T12:27:18.448Z,19.19
2022-10-19T12:30:13.354Z,19.32
2022-10-19T12:33:13.826Z,19.38
2022-10-19T12:36:11.942Z,19.46
2022-10-19T12:39:10.245Z,19.44
2022-10-19T12:42:21.942Z,19.53
2022-10-19T12:45:36.042Z,19.76
2022-10-19T12:48:24.601Z,19.81
2022-10-19T12:51:15.903Z,19.83
2022-10-19T12:54:09.570Z,19.93
2022-10-19T12:56:58.322Z,19.67
2022-10-19T12:59:44.852Z,19.59
2022-10-19T13:02:35.300Z,19.79
2022-10-19T13:05:24.032Z,19.91
2022-10-19T13:08:31.982Z,19.92
2022-10-19T13:11:18.406Z,19.94
2022-10-19T13:14:14.636Z,19.90
2022-10-19T13:17:02.659Z,19.98
2022-10-19T13:19:49.042Z,19.96
2022-10-19T13:22:35.394Z,20.01
2022-10-19T13:25:31.974Z,20.13
2022-10-19T13:28:27.468Z,20.06
2022-10-19T13:31:27.651Z,19.82
2022-10-19T13:34:15.329Z,19.90
2022-10-19T13:37:03.800Z,19.81
2022-10-19T13:39:50.369Z,19.90
2022-10-19T13:42:37.171Z,19.82
2022-10-19T13:45:24.942Z,19.96
2022-10-19T13:48:23.157Z,20.01
2022-10-19T13:51:31.257Z,19.92
2022-10-19T13:54:57.924Z,19.80
2022-10-19T13:58:21.334Z,19.42
2022-10-19T14:01:31.200Z,19.29
2022-10-19T14:04:26.109Z,19.28
2022-10-19T14:07:15.659Z,19.09
2022-10-19T14:10:14.216Z,18.90
2022-10-19T14:13:03.223Z,18.59
2022-10-19T14:15:53.370Z,18.62
2022-10-19T14:18:42.009Z,18.49
2022-10-19T14:21:34.135Z,18.47
2022-10-19T14:24:40.694Z,18.37
2022-10-19T14:27:27.057Z,18.24
2022-10-19T14:30:27.368Z,18.26
2022-10-19T14:33:17.757Z,18.17
2022-10-19T14:36:06.943Z,18.05
2022-10-19T14:38:55.452Z,17.92
2022-10-19T14:41:41.939Z,17.83
2022-10-19T14:44:44.143Z,17.72
2022-10-19T14:47:30.678Z,17.79
2022-10-19T14:50:17.977Z,17.60
2022-10-19T14:53:19.403Z,17.62
2022-10-19T14:56:20.942Z,17.53
2022-10-19T14:59:31.021Z,17.40
2022-10-19T15:02:24.093Z,17.38
2022-10-19T15:05:27.977Z,17.42
2022-10-19T15:08:32.422Z,17.36
2022-10-19T15:11:38.006Z,17.47
2022-10-19T15:14:30.081Z,17.38
2022-10-19T15:17:32.862Z,17.24
2022-10-19T15:20:43.951Z,17.25
2022-10-19T15:23:47.098Z,17.07
2022-10-19T15:26:34.344Z,16.92
2022-10-19T15:29:28.402Z,16.63
2022-10-19T15:32:16.655Z,16.67
2022-10-19T15:35:19.544Z,16.69
2022-10-19T15:38:20.603Z,16.58
2022-10-19T15:41:06.798Z,16.45
2022-10-19T15:43:56.702Z,16.50
2022-10-19T15:46:49.016Z,16.41
2022-10-19T15:49:38.567Z,16.27
2022-10-19T15:52:30.492Z,16.10
2022-10-19T15:55:17.266Z,15.98
2022-10-19T15:58:03.778Z,15.89
2022-10-19T16:00:50.105Z,15.65
2022-10-19T16:03:36.271Z,15.84
2022-10-19T16:06:26.673Z,15.72
2022-10-19T16:09:19.049Z,15.72
2022-10-19T16:12:05.290Z,15.73
2022-10-19T16:14:51.539Z,15.68
2022-10-19T16:17:38.037Z,15.70
2022-10-19T16:20:26.629Z,15.50
2022-10-19T16:23:14.266Z,15.76
2022-10-19T16:26:01.802Z,15.64
2022-10-19T16:28:48.735Z,15.56
2022-10-19T16:31:35.121Z,15.46
2022-10-19T16:34:21.634Z,15.38
2022-10-19T16:37:08.027Z,15.27
2022-10-19T16:39:54.205Z,15.15
2022-10-19T16:42:40.439Z,15.04
2022-10-19T16:45:27.380Z,14.85
2022-10-19T16:48:13.957Z,14.88
2022-10-19T16:51:06.587Z,14.81
2022-10-19T16:53:56.975Z,14.69
2022-10-19T16:56:45.806Z,14.57
2022-10-19T16:59:32.222Z,14.61
2022-10-19T17:02:19.842Z,14.59
2022-10-19T17:05:06.339Z,14.37
2022-10-19T17:07:52.695Z,14.30
2022-10-19T17:10:39.206Z,14.42
2022-10-19T17:13:25.728Z,14.35
2022-10-19T17:16:12.781Z,14.14
2022-10-19T17:19:01.170Z,13.92
2022-10-19T17:21:49.386Z,13.92
2022-10-19T17:24:37.378Z,13.84
2022-10-19T17:27:23.723Z,13.71
2022-10-19T17:30:10.578Z,13.64
2022-10-19T17:32:57.082Z,13.55
2022-10-19T17:35:43.443Z,13.38
2022-10-19T17:38:29.578Z,13.34
2022-10-19T17:41:18.342Z,13.27
2022-10-19T17:44:05.449Z,12.97
2022-10-19T17:46:51.894Z,13.01
2022-10-19T17:49:38.090Z,12.98
2022-10-19T17:52:24.338Z,12.72
2022-10-19T17:55:12.880Z,12.77
2022-10-19T17:57:59.985Z,12.70
2022-10-19T18:00:46.760Z,12.58
2022-10-19T18:03:34.860Z,12.56
2022-10-19T18:06:25.577Z,12.48
2022-10-19T18:09:13.540Z,12.43
2022-10-19T18:12:04.655Z,12.30
2022-10-19T18:14:53.781Z,12.08
2022-10-19T18:17:40.449Z,12.24
2022-10-19T18:20:26.822Z,12.18
2022-10-19T18:23:13.241Z,12.23
2022-10-19T18:26:12.035Z,12.24
2022-10-19T18:29:00.068Z,12.23
2022-10-19T18:31:52.198Z,12.14
2022-10-19T18:34:38.587Z,11.99
2022-10-19T18:37:24.814Z,12.18
2022-10-19T18:40:11.882Z,12.11
2022-10-19T18:42:58.149Z,12.09
2022-10-19T18:45:52.481Z,12.08
2022-10-19T18:48:39.149Z,11.73
2022-10-19T18:51:25.551Z,11.92
2022-10-19T18:54:12.290Z,11.83
2022-10-19T18:56:58.841Z,12.06
2022-10-19T18:59:45.387Z,12.09
2022-10-19T19:02:42.246Z,12.12
2022-10-19T19:05:33.104Z,12.17
2022-10-19T19:08:19.617Z,11.79
2022-10-19T19:11:14.225Z,12.19
2022-10-19T19:14:03.732Z,12.16
2022-10-19T19:16:50.345Z,12.08
2022-10-19T19:19:37.517Z,11.88
2022-10-19T19:22:25.987Z,11.80
2022-10-19T19:25:12.516Z,11.78
2022-10-19T19:27:58.841Z,11.78
2022-10-19T19:30:46.041Z,11.66
2022-10-19T19:33:32.724Z,11.67
2022-10-19T19:36:20.282Z,11.49
2022-10-19T19:39:06.530Z,11.50
2022-10-19T19:41:52.866Z,11.45
2022-10-19T19:44:39.368Z,11.30
2022-10-19T19:47:25.753Z,11.23
2022-10-19T19:50:12.002Z,11.32
2022-10-19T19:52:59.353Z,11.31
2022-10-19T19:55:46.975Z,11.23
2022-10-19T19:58:33.763Z,11.42
2022-10-19T20:01:21.595Z,11.51
2022-10-19T20:04:08.015Z,11.58
2022-10-19T20:06:54.518Z,11.67
2022-10-19T20:09:41.195Z,11.61
2022-10-19T20:12:27.493Z,11.64
2022-10-19T20:15:15.945Z,11.93
2022-10-19T20:18:02.090Z,11.96
2022-10-19T20:20:49.322Z,12.00
2022-10-19T20:23:35.886Z,11.93
2022-10-19T20:26:23.849Z,11.94
2022-10-19T20:29:10.353Z,11.87
2022-10-19T20:31:56.936Z,11.64
2022-10-19T20:34:43.226Z,11.77
2022-10-19T20:37:30.159Z,11.75
2022-10-19T20:40:17.494Z,11.71
2022-10-19T20:43:03.783Z,11.62
2022-10-19T20:45:50.166Z,11.46
2022-10-19T20:48:36.470Z,11.28
2022-10-19T20:51:31.030Z,11.43
2022-10-19T20:54:18.000Z,11.41
2022-10-19T20:57:04.378Z,11.29
2022-10-19T20:59:51.338Z,11.12
2022-10-19T21:02:37.860Z,11.25
2022-10-19T21:05:24.786Z,11.11
2022-10-19T21:08:10.894Z,11.22
2022-10-19T21:10:57.427Z,11.03
2022-10-19T21:13:44.472Z,11.10
2022-10-19T21:16:33.940Z,10.87
2022-10-19T21:19:23.658Z,10.97
2022-10-19T21:22:11.271Z,10.93
2022-10-19T21:24:57.776Z,10.81
2022-10-19T21:27:44.156Z,10.65
2022-10-19T21:30:30.282Z,10.83
2022-10-19T21:33:16.926Z,10.58
2022-10-19T21:36:05.939Z,10.62
2022-10-19T21:38:52.224Z,10.56
2022-10-19T21:41:38.857Z,10.48
2022-10-19T21:44:25.354Z,10.45
2022-10-19T21:47:11.362Z,10.42
2022-10-19T21:49:57.744Z,10.35
2022-10-19T21:52:44.154Z,10.33
2022-10-19T21:55:33.527Z,10.21
2022-10-19T21:58:23.174Z,10.20
2022-10-19T22:01:09.665Z,10.22
2022-10-19T22:04:01.159Z,10.23
2022-10-19T22:06:47.881Z,10.19
2022-10-19T22:09:34.317Z,10.00
2022-10-19T22:12:20.599Z,10.15
2022-10-19T22:15:07.330Z,9.97
2022-10-19T22:17:53.676Z,10.09
2022-10-19T22:20:40.630Z,9.96
2022-10-19T22:23:26.955Z,10.03
2022-10-19T22:26:22.041Z,9.99
2022-10-19T22:29:08.608Z,9.81
2022-10-19T22:31:55.351Z,9.80
2022-10-19T22:34:41.592Z,9.98
2022-10-19T22:37:28.128Z,9.80
2022-10-19T22:40:14.482Z,9.83
2022-10-19T22:43:04.881Z,9.33
2022-10-19T22:45:53.221Z,9.63
2022-10-19T22:48:39.605Z,9.80
2022-10-19T22:51:25.947Z,9.78
2022-10-19T22:54:13.066Z,9.54
2022-10-19T22:56:59.221Z,9.83
2022-10-19T22:59:46.041Z,9.75
2022-10-19T23:02:32.639Z,9.79
2022-10-19T23:05:19.068Z,9.84
2022-10-19T23:08:05.681Z,9.67
2022-10-19T23:10:51.966Z,9.79
2022-10-19T23:13:38.449Z,9.74
2022-10-19T23:16:25.089Z,9.75
2022-10-19T23:19:11.681Z,9.61
2022-10-19T23:21:57.923Z,9.77
2022-10-19T23:24:44.234Z,9.63
2022-10-19T23:27:30.890Z,9.72
2022-10-19T23:30:17.110Z,9.44
2022-10-19T23:33:03.549Z,9.58
2022-10-19T23:35:49.675Z,9.74
2022-10-19T23:38:36.364Z,9.60
2022-10-19T23:41:23.409Z,9.72
2022-10-19T23:44:10.032Z,9.76
2022-10-19T23:46:56.209Z,9.66
2022-10-19T23:49:42.362Z,9.46
2022-10-19T23:52:28.760Z,9.53
2022-10-19T23:55:15.382Z,9.41
2022-10-19T23:58:01.646Z,9.48
